sensor_id;sensor_type;location;lat;lon;timestamp;temperature;humidity
13610;DHT22;6876;50.788;4.940;2023-03-03T00:01:41;2.00;99.90
13610;DHT22;6876;50.788;4.940;2023-03-03T00:04:29;2.00;99.90
13610;DHT22;6876;50.788;4.940;2023-03-03T00:07:17;1.90;99.90
13610;DHT22;6876;50.788;4.940;2023-03-03T00:10:08;1.90;99.90
13610;DHT22;6876;50.788;4.940;2023-03-03T00:12:56;1.90;99.90
13610;DHT22;6876;50.788;4.940;2023-03-03T00:15:43;1.80;99.90
13610;DHT22;6876;50.788;4.940;2023-03-03T00:18:34;1.80;99.90
13610;DHT22;6876;50.788;4.940;2023-03-03T00:21:28;1.70;99.90
13610;DHT22;6876;50.788;4.940;2023-03-03T00:24:21;1.70;99.90
13610;DHT22;6876;50.788;4.940;2023-03-03T00:27:17;1.70;99.90
13610;DHT22;6876;50.788;4.940;2023-03-03T00:30:17;1.70;99.90
13610;DHT22;6876;50.788;4.940;2023-03-03T00:33:14;1.70;99.90
13610;DHT22;6876;50.788;4.940;2023-03-03T00:36:21;1.60;99.90
13610;DHT22;6876;50.788;4.940;2023-03-03T00:39:22;1.60;99.90
13610;DHT22;6876;50.788;4.940;2023-03-03T00:42:13;1.50;99.90
13610;DHT22;6876;50.788;4.940;2023-03-03T00:45:00;1.60;99.90
13610;DHT22;6876;50.788;4.940;2023-03-03T00:47:47;1.50;99.90
13610;DHT22;6876;50.788;4.940;2023-03-03T00:50:35;1.50;99.90
13610;DHT22;6876;50.788;4.940;2023-03-03T00:53:26;1.40;99.90
13610;DHT22;6876;50.788;4.940;2023-03-03T00:56:15;1.40;99.90
13610;DHT22;6876;50.788;4.940;2023-03-03T00:59:02;1.40;99.90
13610;DHT22;6876;50.788;4.940;2023-03-03T01:01:50;1.30;99.90
13610;DHT22;6876;50.788;4.940;2023-03-03T01:04:38;1.30;99.90
13610;DHT22;6876;50.788;4.940;2023-03-03T01:07:26;1.30;99.90
13610;DHT22;6876;50.788;4.940;2023-03-03T01:10:13;1.20;99.90
13610;DHT22;6876;50.788;4.940;2023-03-03T01:13:02;1.20;99.90
13610;DHT22;6876;50.788;4.940;2023-03-03T01:15:50;1.20;99.90
13610;DHT22;6876;50.788;4.940;2023-03-03T01:18:38;1.10;99.90
13610;DHT22;6876;50.788;4.940;2023-03-03T01:21:26;1.10;99.90
13610;DHT22;6876;50.788;4.940;2023-03-03T01:24:14;1.10;99.90
13610;DHT22;6876;50.788;4.940;2023-03-03T01:27:01;1.20;99.90
13610;DHT22;6876;50.788;4.940;2023-03-03T01:29:50;1.10;99.90
13610;DHT22;6876;50.788;4.940;2023-03-03T01:32:38;1.10;99.90
13610;DHT22;6876;50.788;4.940;2023-03-03T01:35:25;1.00;99.90
13610;DHT22;6876;50.788;4.940;2023-03-03T01:38:14;1.00;99.90
13610;DHT22;6876;50.788;4.940;2023-03-03T01:41:02;1.00;99.90
13610;DHT22;6876;50.788;4.940;2023-03-03T01:43:49;1.00;99.90
13610;DHT22;6876;50.788;4.940;2023-03-03T01:46:49;1.00;99.90
13610;DHT22;6876;50.788;4.940;2023-03-03T01:49:42;1.00;99.90
13610;DHT22;6876;50.788;4.940;2023-03-03T01:52:34;1.00;99.90
13610;DHT22;6876;50.788;4.940;2023-03-03T01:55:27;1.00;99.90
13610;DHT22;6876;50.788;4.940;2023-03-03T01:58:19;1.00;99.90
13610;DHT22;6876;50.788;4.940;2023-03-03T02:01:10;1.00;99.90
13610;DHT22;6876;50.788;4.940;2023-03-03T02:04:00;1.10;99.90
13610;DHT22;6876;50.788;4.940;2023-03-03T02:06:50;1.20;99.90
13610;DHT22;6876;50.788;4.940;2023-03-03T02:09:45;1.20;99.90
13610;DHT22;6876;50.788;4.940;2023-03-03T02:12:39;1.30;99.90
13610;DHT22;6876;50.788;4.940;2023-03-03T02:15:28;1.40;99.90
13610;DHT22;6876;50.788;4.940;2023-03-03T02:18:19;1.40;99.90
13610;DHT22;6876;50.788;4.940;2023-03-03T02:21:10;1.40;99.90
13610;DHT22;6876;50.788;4.940;2023-03-03T02:24:04;1.50;99.90
13610;DHT22;6876;50.788;4.940;2023-03-03T02:26:53;1.50;99.90
13610;DHT22;6876;50.788;4.940;2023-03-03T02:29:41;1.40;99.90
13610;DHT22;6876;50.788;4.940;2023-03-03T02:32:28;1.50;99.90
13610;DHT22;6876;50.788;4.940;2023-03-03T02:35:28;1.40;99.90
13610;DHT22;6876;50.788;4.940;2023-03-03T02:38:19;1.40;99.90
13610;DHT22;6876;50.788;4.940;2023-03-03T02:41:12;1.40;99.90
13610;DHT22;6876;50.788;4.940;2023-03-03T02:44:05;1.40;99.90
13610;DHT22;6876;50.788;4.940;2023-03-03T02:46:54;1.30;99.90
13610;DHT22;6876;50.788;4.940;2023-03-03T02:49:42;1.30;99.90
13610;DHT22;6876;50.788;4.940;2023-03-03T02:52:30;1.30;99.90
13610;DHT22;6876;50.788;4.940;2023-03-03T02:55:17;1.30;99.90
13610;DHT22;6876;50.788;4.940;2023-03-03T02:58:04;1.40;99.90
13610;DHT22;6876;50.788;4.940;2023-03-03T03:00:53;1.40;99.90
13610;DHT22;6876;50.788;4.940;2023-03-03T03:03:40;1.40;99.90
13610;DHT22;6876;50.788;4.940;2023-03-03T03:06:27;1.40;99.90
13610;DHT22;6876;50.788;4.940;2023-03-03T03:09:16;1.40;99.90
13610;DHT22;6876;50.788;4.940;2023-03-03T03:12:03;1.30;99.90
13610;DHT22;6876;50.788;4.940;2023-03-03T03:14:51;1.30;99.90
13610;DHT22;6876;50.788;4.940;2023-03-03T03:17:40;1.30;99.90
13610;DHT22;6876;50.788;4.940;2023-03-03T03:20:27;1.30;99.90
13610;DHT22;6876;50.788;4.940;2023-03-03T03:23:15;1.30;99.90
13610;DHT22;6876;50.788;4.940;2023-03-03T03:26:03;1.20;99.90
13610;DHT22;6876;50.788;4.940;2023-03-03T03:28:51;1.10;99.90
13610;DHT22;6876;50.788;4.940;2023-03-03T03:31:39;1.10;99.90
13610;DHT22;6876;50.788;4.940;2023-03-03T03:34:30;1.00;99.90
13610;DHT22;6876;50.788;4.940;2023-03-03T03:37:17;0.90;99.90
13610;DHT22;6876;50.788;4.940;2023-03-03T03:40:05;0.80;99.90
13610;DHT22;6876;50.788;4.940;2023-03-03T03:42:53;0.90;99.90
13610;DHT22;6876;50.788;4.940;2023-03-03T03:45:41;0.90;99.90
13610;DHT22;6876;50.788;4.940;2023-03-03T03:48:28;1.00;99.90
13610;DHT22;6876;50.788;4.940;2023-03-03T03:51:17;1.00;99.90
13610;DHT22;6876;50.788;4.940;2023-03-03T03:54:04;0.90;99.90
13610;DHT22;6876;50.788;4.940;2023-03-03T03:56:52;0.90;99.90
13610;DHT22;6876;50.788;4.940;2023-03-03T03:59:39;0.90;99.90
13610;DHT22;6876;50.788;4.940;2023-03-03T04:02:27;0.70;99.90
13610;DHT22;6876;50.788;4.940;2023-03-03T04:05:14;0.70;99.90
13610;DHT22;6876;50.788;4.940;2023-03-03T04:08:03;0.70;99.90
13610;DHT22;6876;50.788;4.940;2023-03-03T04:10:50;0.60;99.90
13610;DHT22;6876;50.788;4.940;2023-03-03T04:13:37;0.60;99.90
13610;DHT22;6876;50.788;4.940;2023-03-03T04:16:24;0.50;99.90
13610;DHT22;6876;50.788;4.940;2023-03-03T04:19:12;0.50;99.90
13610;DHT22;6876;50.788;4.940;2023-03-03T04:21:59;0.50;99.90
13610;DHT22;6876;50.788;4.940;2023-03-03T04:24:48;0.50;99.90
13610;DHT22;6876;50.788;4.940;2023-03-03T04:27:36;0.50;99.90
13610;DHT22;6876;50.788;4.940;2023-03-03T04:30:23;0.50;99.90
13610;DHT22;6876;50.788;4.940;2023-03-03T04:33:11;0.50;99.90
13610;DHT22;6876;50.788;4.940;2023-03-03T04:35:59;0.50;99.90
13610;DHT22;6876;50.788;4.940;2023-03-03T04:38:46;0.50;99.90
13610;DHT22;6876;50.788;4.940;2023-03-03T04:41:35;0.50;99.90
13610;DHT22;6876;50.788;4.940;2023-03-03T04:44:22;0.50;99.90
13610;DHT22;6876;50.788;4.940;2023-03-03T04:47:10;0.50;99.90
13610;DHT22;6876;50.788;4.940;2023-03-03T04:49:57;0.50;99.90
13610;DHT22;6876;50.788;4.940;2023-03-03T04:52:45;0.50;99.90
13610;DHT22;6876;50.788;4.940;2023-03-03T04:55:34;0.50;99.90
13610;DHT22;6876;50.788;4.940;2023-03-03T04:58:22;0.40;99.90
13610;DHT22;6876;50.788;4.940;2023-03-03T05:01:11;0.40;99.90
13610;DHT22;6876;50.788;4.940;2023-03-03T05:03:59;0.40;99.90
13610;DHT22;6876;50.788;4.940;2023-03-03T05:06:46;0.40;99.90
13610;DHT22;6876;50.788;4.940;2023-03-03T05:09:35;0.50;99.90
13610;DHT22;6876;50.788;4.940;2023-03-03T05:12:22;0.50;99.90
13610;DHT22;6876;50.788;4.940;2023-03-03T05:15:11;0.50;99.90
13610;DHT22;6876;50.788;4.940;2023-03-03T05:17:59;0.50;99.90
13610;DHT22;6876;50.788;4.940;2023-03-03T05:20:46;0.40;99.90
13610;DHT22;6876;50.788;4.940;2023-03-03T05:23:33;0.50;99.90
13610;DHT22;6876;50.788;4.940;2023-03-03T05:26:21;0.40;99.90
13610;DHT22;6876;50.788;4.940;2023-03-03T05:29:08;0.40;99.90
13610;DHT22;6876;50.788;4.940;2023-03-03T05:31:57;0.30;99.90
13610;DHT22;6876;50.788;4.940;2023-03-03T05:34:44;0.30;99.90
13610;DHT22;6876;50.788;4.940;2023-03-03T05:37:31;0.30;99.90
13610;DHT22;6876;50.788;4.940;2023-03-03T05:40:19;0.20;99.90
13610;DHT22;6876;50.788;4.940;2023-03-03T05:43:06;0.20;99.90
13610;DHT22;6876;50.788;4.940;2023-03-03T05:45:54;0.20;99.90
13610;DHT22;6876;50.788;4.940;2023-03-03T05:48:44;0.10;99.90
13610;DHT22;6876;50.788;4.940;2023-03-03T05:51:31;0.10;99.90
13610;DHT22;6876;50.788;4.940;2023-03-03T05:54:18;0.10;99.90
13610;DHT22;6876;50.788;4.940;2023-03-03T05:57:06;0.10;99.90
13610;DHT22;6876;50.788;4.940;2023-03-03T05:59:53;0.00;99.90
13610;DHT22;6876;50.788;4.940;2023-03-03T06:02:41;0.00;99.90
13610;DHT22;6876;50.788;4.940;2023-03-03T06:05:29;0.00;99.90
13610;DHT22;6876;50.788;4.940;2023-03-03T06:08:17;0.00;99.90
13610;DHT22;6876;50.788;4.940;2023-03-03T06:11:04;0.00;99.90
13610;DHT22;6876;50.788;4.940;2023-03-03T06:13:52;-0.10;99.90
13610;DHT22;6876;50.788;4.940;2023-03-03T06:16:39;0.00;99.90
13610;DHT22;6876;50.788;4.940;2023-03-03T06:19:26;0.00;99.90
13610;DHT22;6876;50.788;4.940;2023-03-03T06:22:15;0.00;99.90
13610;DHT22;6876;50.788;4.940;2023-03-03T06:25:03;-0.10;99.90
13610;DHT22;6876;50.788;4.940;2023-03-03T06:27:50;-0.10;99.90
13610;DHT22;6876;50.788;4.940;2023-03-03T06:30:37;-0.10;99.90
13610;DHT22;6876;50.788;4.940;2023-03-03T06:33:25;-0.10;99.90
13610;DHT22;6876;50.788;4.940;2023-03-03T06:36:13;-0.10;99.90
13610;DHT22;6876;50.788;4.940;2023-03-03T06:39:01;-0.10;99.90
13610;DHT22;6876;50.788;4.940;2023-03-03T06:41:49;0.00;99.90
13610;DHT22;6876;50.788;4.940;2023-03-03T06:44:36;0.00;99.90
13610;DHT22;6876;50.788;4.940;2023-03-03T06:47:23;0.00;99.90
13610;DHT22;6876;50.788;4.940;2023-03-03T06:50:11;-0.10;99.90
13610;DHT22;6876;50.788;4.940;2023-03-03T06:53:03;0.00;99.90
13610;DHT22;6876;50.788;4.940;2023-03-03T06:55:55;0.00;99.90
13610;DHT22;6876;50.788;4.940;2023-03-03T06:58:44;0.00;99.90
13610;DHT22;6876;50.788;4.940;2023-03-03T07:01:34;0.10;99.90
13610;DHT22;6876;50.788;4.940;2023-03-03T07:04:26;0.10;99.90
13610;DHT22;6876;50.788;4.940;2023-03-03T07:07:18;0.20;99.90
13610;DHT22;6876;50.788;4.940;2023-03-03T07:10:11;0.30;99.90
13610;DHT22;6876;50.788;4.940;2023-03-03T07:13:16;0.30;99.90
13610;DHT22;6876;50.788;4.940;2023-03-03T07:16:11;0.20;99.90
13610;DHT22;6876;50.788;4.940;2023-03-03T07:19:00;0.10;99.90
13610;DHT22;6876;50.788;4.940;2023-03-03T07:21:50;0.10;99.90
13610;DHT22;6876;50.788;4.940;2023-03-03T07:24:38;0.10;99.90
13610;DHT22;6876;50.788;4.940;2023-03-03T07:27:27;0.00;99.90
13610;DHT22;6876;50.788;4.940;2023-03-03T07:30:24;0.10;99.90
13610;DHT22;6876;50.788;4.940;2023-03-03T07:33:19;0.10;99.90
13610;DHT22;6876;50.788;4.940;2023-03-03T07:36:23;0.10;99.90
13610;DHT22;6876;50.788;4.940;2023-03-03T07:39:25;0.10;99.90
13610;DHT22;6876;50.788;4.940;2023-03-03T07:42:19;0.20;99.90
13610;DHT22;6876;50.788;4.940;2023-03-03T07:45:23;0.10;99.90
13610;DHT22;6876;50.788;4.940;2023-03-03T07:48:18;0.20;99.90
13610;DHT22;6876;50.788;4.940;2023-03-03T07:51:15;0.30;99.90
13610;DHT22;6876;50.788;4.940;2023-03-03T07:54:24;0.20;99.90
13610;DHT22;6876;50.788;4.940;2023-03-03T07:57:19;0.30;99.90
13610;DHT22;6876;50.788;4.940;2023-03-03T08:03:34;0.30;99.90
13610;DHT22;6876;50.788;4.940;2023-03-03T08:06:41;0.30;99.90
13610;DHT22;6876;50.788;4.940;2023-03-03T08:09:41;0.30;99.90
13610;DHT22;6876;50.788;4.940;2023-03-03T08:12:40;0.30;99.90
13610;DHT22;6876;50.788;4.940;2023-03-03T08:15:30;0.30;99.90
13610;DHT22;6876;50.788;4.940;2023-03-03T08:18:23;0.20;99.90
13610;DHT22;6876;50.788;4.940;2023-03-03T08:21:14;0.30;99.90
13610;DHT22;6876;50.788;4.940;2023-03-03T08:24:02;0.30;99.90
13610;DHT22;6876;50.788;4.940;2023-03-03T08:26:49;0.40;99.90
13610;DHT22;6876;50.788;4.940;2023-03-03T08:29:39;0.40;99.90
13610;DHT22;6876;50.788;4.940;2023-03-03T08:32:26;0.40;99.90
13610;DHT22;6876;50.788;4.940;2023-03-03T08:35:13;0.50;99.90
13610;DHT22;6876;50.788;4.940;2023-03-03T08:38:03;0.50;99.90
13610;DHT22;6876;50.788;4.940;2023-03-03T08:40:50;0.50;99.90
13610;DHT22;6876;50.788;4.940;2023-03-03T08:43:38;0.50;99.90
13610;DHT22;6876;50.788;4.940;2023-03-03T08:46:26;0.50;99.90
13610;DHT22;6876;50.788;4.940;2023-03-03T08:49:13;0.50;99.90
13610;DHT22;6876;50.788;4.940;2023-03-03T08:52:00;0.60;99.90
13610;DHT22;6876;50.788;4.940;2023-03-03T08:54:50;0.60;99.90
13610;DHT22;6876;50.788;4.940;2023-03-03T08:57:37;0.70;99.90
13610;DHT22;6876;50.788;4.940;2023-03-03T09:00:25;0.90;99.90
13610;DHT22;6876;50.788;4.940;2023-03-03T09:03:12;0.90;99.90
13610;DHT22;6876;50.788;4.940;2023-03-03T09:06:00;0.90;99.90
13610;DHT22;6876;50.788;4.940;2023-03-03T09:08:47;1.00;99.90
13610;DHT22;6876;50.788;4.940;2023-03-03T09:11:36;1.00;99.90
13610;DHT22;6876;50.788;4.940;2023-03-03T09:14:27;1.00;99.90
13610;DHT22;6876;50.788;4.940;2023-03-03T09:17:24;1.00;99.90
13610;DHT22;6876;50.788;4.940;2023-03-03T09:20:31;1.10;99.90
13610;DHT22;6876;50.788;4.940;2023-03-03T09:23:28;1.10;99.90
13610;DHT22;6876;50.788;4.940;2023-03-03T09:26:24;1.10;99.90
13610;DHT22;6876;50.788;4.940;2023-03-03T09:29:22;1.30;99.90
13610;DHT22;6876;50.788;4.940;2023-03-03T09:32:33;1.20;99.90
13610;DHT22;6876;50.788;4.940;2023-03-03T09:35:38;1.20;99.90
13610;DHT22;6876;50.788;4.940;2023-03-03T09:38:29;1.30;99.90
13610;DHT22;6876;50.788;4.940;2023-03-03T09:41:33;1.40;99.90
13610;DHT22;6876;50.788;4.940;2023-03-03T09:44:37;1.30;99.90
13610;DHT22;6876;50.788;4.940;2023-03-03T09:47:38;1.30;99.90
13610;DHT22;6876;50.788;4.940;2023-03-03T09:50:33;1.30;99.90
13610;DHT22;6876;50.788;4.940;2023-03-03T09:53:33;1.30;99.90
13610;DHT22;6876;50.788;4.940;2023-03-03T09:56:27;1.30;99.90
13610;DHT22;6876;50.788;4.940;2023-03-03T09:59:28;1.30;99.90
13610;DHT22;6876;50.788;4.940;2023-03-03T10:02:42;1.40;99.90
13610;DHT22;6876;50.788;4.940;2023-03-03T10:05:43;1.50;99.90
13610;DHT22;6876;50.788;4.940;2023-03-03T10:08:56;1.50;99.90
13610;DHT22;6876;50.788;4.940;2023-03-03T10:11:49;1.60;99.90
13610;DHT22;6876;50.788;4.940;2023-03-03T10:18:02;1.70;99.90
13610;DHT22;6876;50.788;4.940;2023-03-03T10:21:03;1.80;99.90
13610;DHT22;6876;50.788;4.940;2023-03-03T10:23:55;1.90;99.90
13610;DHT22;6876;50.788;4.940;2023-03-03T10:26:58;1.90;99.90
13610;DHT22;6876;50.788;4.940;2023-03-03T10:29:56;2.00;99.90
13610;DHT22;6876;50.788;4.940;2023-03-03T10:32:50;2.00;99.90
13610;DHT22;6876;50.788;4.940;2023-03-03T10:36:00;2.10;99.90
13610;DHT22;6876;50.788;4.940;2023-03-03T10:39:02;2.30;99.90
13610;DHT22;6876;50.788;4.940;2023-03-03T10:42:10;2.50;99.90
13610;DHT22;6876;50.788;4.940;2023-03-03T10:45:12;2.50;99.90
13610;DHT22;6876;50.788;4.940;2023-03-03T10:48:32;2.60;99.90
13610;DHT22;6876;50.788;4.940;2023-03-03T10:51:30;2.60;99.90
13610;DHT22;6876;50.788;4.940;2023-03-03T10:54:29;2.60;99.90
13610;DHT22;6876;50.788;4.940;2023-03-03T10:57:25;2.60;99.90
13610;DHT22;6876;50.788;4.940;2023-03-03T11:00:21;2.60;99.90
13610;DHT22;6876;50.788;4.940;2023-03-03T11:03:45;2.70;99.90
13610;DHT22;6876;50.788;4.940;2023-03-03T11:06:44;2.80;99.90
13610;DHT22;6876;50.788;4.940;2023-03-03T11:09:46;2.80;99.90
13610;DHT22;6876;50.788;4.940;2023-03-03T11:12:45;2.80;99.90
13610;DHT22;6876;50.788;4.940;2023-03-03T11:15:43;2.90;99.90
13610;DHT22;6876;50.788;4.940;2023-03-03T11:18:43;2.90;99.90
13610;DHT22;6876;50.788;4.940;2023-03-03T11:21:43;2.90;99.90
13610;DHT22;6876;50.788;4.940;2023-03-03T11:24:49;3.00;99.90
13610;DHT22;6876;50.788;4.940;2023-03-03T11:28:07;3.10;99.90
13610;DHT22;6876;50.788;4.940;2023-03-03T11:31:06;3.10;99.90
13610;DHT22;6876;50.788;4.940;2023-03-03T11:34:02;3.20;99.90
13610;DHT22;6876;50.788;4.940;2023-03-03T11:36:59;3.10;99.90
13610;DHT22;6876;50.788;4.940;2023-03-03T11:39:48;3.20;99.90
13610;DHT22;6876;50.788;4.940;2023-03-03T11:42:48;3.20;99.90
13610;DHT22;6876;50.788;4.940;2023-03-03T11:45:42;3.30;99.90
13610;DHT22;6876;50.788;4.940;2023-03-03T11:48:38;3.40;99.90
13610;DHT22;6876;50.788;4.940;2023-03-03T11:51:34;3.50;99.90
13610;DHT22;6876;50.788;4.940;2023-03-03T11:54:30;3.40;99.90
13610;DHT22;6876;50.788;4.940;2023-03-03T11:57:23;3.50;99.90
13610;DHT22;6876;50.788;4.940;2023-03-03T12:00:19;3.70;99.90
13610;DHT22;6876;50.788;4.940;2023-03-03T12:03:28;3.50;99.90
13610;DHT22;6876;50.788;4.940;2023-03-03T12:06:22;3.40;99.90
13610;DHT22;6876;50.788;4.940;2023-03-03T12:09:23;3.50;99.90
13610;DHT22;6876;50.788;4.940;2023-03-03T12:12:16;3.70;99.90
13610;DHT22;6876;50.788;4.940;2023-03-03T12:15:17;3.80;99.90
13610;DHT22;6876;50.788;4.940;2023-03-03T12:18:19;3.70;99.90
13610;DHT22;6876;50.788;4.940;2023-03-03T12:21:24;3.70;99.90
13610;DHT22;6876;50.788;4.940;2023-03-03T12:24:33;3.80;99.90
13610;DHT22;6876;50.788;4.940;2023-03-03T12:27:34;4.00;99.90
13610;DHT22;6876;50.788;4.940;2023-03-03T12:30:42;4.00;99.90
13610;DHT22;6876;50.788;4.940;2023-03-03T12:33:49;4.10;99.90
13610;DHT22;6876;50.788;4.940;2023-03-03T12:36:55;3.90;99.90
13610;DHT22;6876;50.788;4.940;2023-03-03T12:39:53;4.00;99.90
13610;DHT22;6876;50.788;4.940;2023-03-03T12:42:52;4.20;99.90
13610;DHT22;6876;50.788;4.940;2023-03-03T12:45:50;4.20;99.90
13610;DHT22;6876;50.788;4.940;2023-03-03T12:48:42;4.20;1.00
13610;DHT22;6876;50.788;4.940;2023-03-03T12:51:36;4.20;1.00
13610;DHT22;6876;50.788;4.940;2023-03-03T12:54:46;4.30;99.90
13610;DHT22;6876;50.788;4.940;2023-03-03T12:57:44;4.30;99.90
13610;DHT22;6876;50.788;4.940;2023-03-03T13:00:48;4.60;46.80
13610;DHT22;6876;50.788;4.940;2023-03-03T13:03:40;4.60;1.00
13610;DHT22;6876;50.788;4.940;2023-03-03T13:06:30;4.70;99.90
13610;DHT22;6876;50.788;4.940;2023-03-03T13:09:28;4.60;99.90
13610;DHT22;6876;50.788;4.940;2023-03-03T13:12:31;4.50;99.90
13610;DHT22;6876;50.788;4.940;2023-03-03T13:15:23;4.60;1.00
13610;DHT22;6876;50.788;4.940;2023-03-03T13:18:24;4.60;1.00
13610;DHT22;6876;50.788;4.940;2023-03-03T13:21:16;4.70;1.00
13610;DHT22;6876;50.788;4.940;2023-03-03T13:24:15;4.80;99.90
13610;DHT22;6876;50.788;4.940;2023-03-03T13:27:07;4.90;99.90
13610;DHT22;6876;50.788;4.940;2023-03-03T13:29:59;4.80;99.90
13610;DHT22;6876;50.788;4.940;2023-03-03T13:32:50;4.90;99.90
13610;DHT22;6876;50.788;4.940;2023-03-03T13:35:44;5.00;99.90
13610;DHT22;6876;50.788;4.940;2023-03-03T13:38:34;5.00;1.00
13610;DHT22;6876;50.788;4.940;2023-03-03T13:41:25;5.30;1.00
13610;DHT22;6876;50.788;4.940;2023-03-03T13:44:21;5.40;1.00
13610;DHT22;6876;50.788;4.940;2023-03-03T13:47:16;5.30;1.00
13610;DHT22;6876;50.788;4.940;2023-03-03T13:50:19;5.60;99.90
13610;DHT22;6876;50.788;4.940;2023-03-03T13:53:28;5.70;1.00
13610;DHT22;6876;50.788;4.940;2023-03-03T13:56:33;5.70;99.90
13610;DHT22;6876;50.788;4.940;2023-03-03T13:59:26;5.50;99.90
13610;DHT22;6876;50.788;4.940;2023-03-03T14:05:50;5.70;1.00
13610;DHT22;6876;50.788;4.940;2023-03-03T14:08:58;5.60;1.00
13610;DHT22;6876;50.788;4.940;2023-03-03T14:11:51;5.50;1.00
13610;DHT22;6876;50.788;4.940;2023-03-03T14:14:48;5.30;1.00
13610;DHT22;6876;50.788;4.940;2023-03-03T14:17:46;5.10;1.00
13610;DHT22;6876;50.788;4.940;2023-03-03T14:20:40;5.20;99.90
13610;DHT22;6876;50.788;4.940;2023-03-03T14:23:36;5.30;1.00
13610;DHT22;6876;50.788;4.940;2023-03-03T14:26:30;5.20;1.00
13610;DHT22;6876;50.788;4.940;2023-03-03T14:29:28;5.30;1.00
13610;DHT22;6876;50.788;4.940;2023-03-03T14:32:20;5.30;1.00
13610;DHT22;6876;50.788;4.940;2023-03-03T14:35:19;5.30;1.00
13610;DHT22;6876;50.788;4.940;2023-03-03T14:38:11;5.20;1.00
13610;DHT22;6876;50.788;4.940;2023-03-03T14:41:07;5.20;1.00
13610;DHT22;6876;50.788;4.940;2023-03-03T14:44:00;5.10;99.90
13610;DHT22;6876;50.788;4.940;2023-03-03T14:47:01;5.20;24.20
13610;DHT22;6876;50.788;4.940;2023-03-03T14:49:51;5.30;1.00
13610;DHT22;6876;50.788;4.940;2023-03-03T14:52:40;5.30;1.00
13610;DHT22;6876;50.788;4.940;2023-03-03T14:55:32;5.40;1.00
13610;DHT22;6876;50.788;4.940;2023-03-03T14:58:29;5.40;99.90
13610;DHT22;6876;50.788;4.940;2023-03-03T15:01:24;5.40;99.90
13610;DHT22;6876;50.788;4.940;2023-03-03T15:04:24;5.20;1.00
13610;DHT22;6876;50.788;4.940;2023-03-03T15:07:22;5.40;1.00
13610;DHT22;6876;50.788;4.940;2023-03-03T15:10:29;5.40;38.70
13610;DHT22;6876;50.788;4.940;2023-03-03T15:13:34;5.40;1.00
13610;DHT22;6876;50.788;4.940;2023-03-03T15:16:25;5.40;11.60
13610;DHT22;6876;50.788;4.940;2023-03-03T15:19:39;5.40;27.50
13610;DHT22;6876;50.788;4.940;2023-03-03T15:22:47;5.30;1.00
13610;DHT22;6876;50.788;4.940;2023-03-03T15:25:41;5.20;99.90
13610;DHT22;6876;50.788;4.940;2023-03-03T15:28:40;5.20;99.90
13610;DHT22;6876;50.788;4.940;2023-03-03T15:31:43;5.20;1.00
13610;DHT22;6876;50.788;4.940;2023-03-03T15:34:38;5.30;1.00
13610;DHT22;6876;50.788;4.940;2023-03-03T15:37:37;5.40;99.90
13610;DHT22;6876;50.788;4.940;2023-03-03T15:40:28;5.30;99.90
13610;DHT22;6876;50.788;4.940;2023-03-03T15:43:21;5.30;1.00
13610;DHT22;6876;50.788;4.940;2023-03-03T15:46:19;5.30;1.00
13610;DHT22;6876;50.788;4.940;2023-03-03T15:49:21;5.30;99.90
13610;DHT22;6876;50.788;4.940;2023-03-03T15:52:23;5.20;99.90
13610;DHT22;6876;50.788;4.940;2023-03-03T15:55:31;5.30;99.90
13610;DHT22;6876;50.788;4.940;2023-03-03T16:01:40;5.30;11.10
13610;DHT22;6876;50.788;4.940;2023-03-03T16:04:33;5.30;1.00
13610;DHT22;6876;50.788;4.940;2023-03-03T16:07:32;5.20;1.00
13610;DHT22;6876;50.788;4.940;2023-03-03T16:10:28;5.10;57.50
13610;DHT22;6876;50.788;4.940;2023-03-03T16:13:30;5.10;99.90
13610;DHT22;6876;50.788;4.940;2023-03-03T16:16:31;5.10;1.00
13610;DHT22;6876;50.788;4.940;2023-03-03T16:19:31;4.90;1.00
13610;DHT22;6876;50.788;4.940;2023-03-03T16:22:45;5.00;1.00
13610;DHT22;6876;50.788;4.940;2023-03-03T16:26:01;5.00;1.00
13610;DHT22;6876;50.788;4.940;2023-03-03T16:29:19;4.90;99.90
13610;DHT22;6876;50.788;4.940;2023-03-03T16:32:11;4.80;99.90
13610;DHT22;6876;50.788;4.940;2023-03-03T16:35:10;4.80;13.40
13610;DHT22;6876;50.788;4.940;2023-03-03T16:38:10;4.70;1.00
13610;DHT22;6876;50.788;4.940;2023-03-03T16:41:00;4.60;99.90
13610;DHT22;6876;50.788;4.940;2023-03-03T16:43:57;4.70;99.90
13610;DHT22;6876;50.788;4.940;2023-03-03T16:46:47;4.50;99.90
13610;DHT22;6876;50.788;4.940;2023-03-03T16:49:42;4.40;99.90
13610;DHT22;6876;50.788;4.940;2023-03-03T16:52:38;4.50;1.00
13610;DHT22;6876;50.788;4.940;2023-03-03T16:55:31;4.30;1.00
13610;DHT22;6876;50.788;4.940;2023-03-03T16:58:29;4.30;99.90
13610;DHT22;6876;50.788;4.940;2023-03-03T17:01:29;4.20;1.00
13610;DHT22;6876;50.788;4.940;2023-03-03T17:04:33;4.10;1.00
13610;DHT22;6876;50.788;4.940;2023-03-03T17:07:35;4.00;1.00
13610;DHT22;6876;50.788;4.940;2023-03-03T17:10:28;3.80;1.00
13610;DHT22;6876;50.788;4.940;2023-03-03T17:13:44;3.70;99.90
13610;DHT22;6876;50.788;4.940;2023-03-03T17:16:40;3.70;1.00
13610;DHT22;6876;50.788;4.940;2023-03-03T17:19:47;3.60;1.00
13610;DHT22;6876;50.788;4.940;2023-03-03T17:22:44;3.60;1.00
13610;DHT22;6876;50.788;4.940;2023-03-03T17:25:43;3.60;1.00
13610;DHT22;6876;50.788;4.940;2023-03-03T17:28:40;3.40;1.00
13610;DHT22;6876;50.788;4.940;2023-03-03T17:31:36;3.30;1.00
13610;DHT22;6876;50.788;4.940;2023-03-03T17:34:36;3.20;99.90
13610;DHT22;6876;50.788;4.940;2023-03-03T17:37:33;3.20;99.90
13610;DHT22;6876;50.788;4.940;2023-03-03T17:40:36;3.10;99.90
13610;DHT22;6876;50.788;4.940;2023-03-03T17:43:30;3.10;99.90
13610;DHT22;6876;50.788;4.940;2023-03-03T17:46:28;3.10;1.00
13610;DHT22;6876;50.788;4.940;2023-03-03T17:49:40;3.10;99.90
13610;DHT22;6876;50.788;4.940;2023-03-03T17:55:57;3.10;1.00
13610;DHT22;6876;50.788;4.940;2023-03-03T17:59:12;3.00;1.00
13610;DHT22;6876;50.788;4.940;2023-03-03T18:02:23;3.00;1.00
13610;DHT22;6876;50.788;4.940;2023-03-03T18:08:53;3.00;1.00
13610;DHT22;6876;50.788;4.940;2023-03-03T18:11:58;3.10;1.00
13610;DHT22;6876;50.788;4.940;2023-03-03T18:15:11;3.20;1.00
13610;DHT22;6876;50.788;4.940;2023-03-03T18:18:16;3.20;1.00
13610;DHT22;6876;50.788;4.940;2023-03-03T18:21:08;3.30;1.00
13610;DHT22;6876;50.788;4.940;2023-03-03T18:27:32;3.30;1.00
13610;DHT22;6876;50.788;4.940;2023-03-03T18:30:25;3.30;1.00
13610;DHT22;6876;50.788;4.940;2023-03-03T18:33:15;3.40;1.00
13610;DHT22;6876;50.788;4.940;2023-03-03T18:36:14;3.40;99.90
13610;DHT22;6876;50.788;4.940;2023-03-03T18:39:02;3.40;99.90
13610;DHT22;6876;50.788;4.940;2023-03-03T18:42:10;3.40;99.90
13610;DHT22;6876;50.788;4.940;2023-03-03T18:45:10;3.40;99.90
13610;DHT22;6876;50.788;4.940;2023-03-03T18:48:17;3.40;99.90
13610;DHT22;6876;50.788;4.940;2023-03-03T18:51:07;3.40;99.90
13610;DHT22;6876;50.788;4.940;2023-03-03T18:53:59;3.40;99.90
13610;DHT22;6876;50.788;4.940;2023-03-03T18:57:03;3.40;98.10
13610;DHT22;6876;50.788;4.940;2023-03-03T18:59:56;3.40;99.90
13610;DHT22;6876;50.788;4.940;2023-03-03T19:02:53;3.40;82.90
13610;DHT22;6876;50.788;4.940;2023-03-03T19:05:47;3.40;99.90
13610;DHT22;6876;50.788;4.940;2023-03-03T19:08:50;3.40;74.60
13610;DHT22;6876;50.788;4.940;2023-03-03T19:11:40;3.30;1.00
13610;DHT22;6876;50.788;4.940;2023-03-03T19:14:31;3.30;99.90
13610;DHT22;6876;50.788;4.940;2023-03-03T19:17:47;3.20;99.90
13610;DHT22;6876;50.788;4.940;2023-03-03T19:20:39;3.10;99.90
13610;DHT22;6876;50.788;4.940;2023-03-03T19:23:48;3.10;99.90
13610;DHT22;6876;50.788;4.940;2023-03-03T19:27:00;3.00;99.90